Flugplatz Blaubeuren (EDMC)

Hier findest Du alle Informationen zum Flugplatz Blaubeuren (EDMC).

Informationen für Piloten zum Flugplatz Blaubeuren

Hier findest Du alle relevanten Informationen, die Du als Pilot benötigst, um Blaubeuren anzufliegen.

Flugplatz: Blaubeuren ICAO-Code: EDMC
Frequenz Turm: 130,605 Mhz GAFOR Gebiet: 62
Frequenz Ground: 130,605 Mhz Mogas: ja
Platzrunde: N 3000 ft Landegebühr: 1. La €
Platzhöhe: 2.217 ft Sunrise: 03:43 Uhr UTC
Pisten: 10/28 - 556 m x 30 m, GRAS Sunset: 19:11 Uhr UTC

Mitglieder, die in Blaubeuren fliegen

Flugwetter am Flugplatz Blaubeuren

Die METAR Information stammen aus EDDS (51.98 km entfernt).

METAR Code:
2024/07/16 20:20
EDDS 162020Z AUTO 22003KT 180V260 CAVOK 19/13 Q1019

Flugschulen am Flugplatz Blaubeuren

Am Flugplatz Blaubeuren gibt es leider keine Flugschule.

Benachbarte Flugplätze und Flugschulen

Es gibt 29 weitere Flugplätze in einem Umkreis von 50 km um den Flugplatz Blaubeuren.

Jetzt anmelden

Passwort vergessen

Umfrage Archiv

Wie häufig haltet Ihr die Halbkreisflugregel ein?

Eher häufig!
36.6 %
Immer!
30.5 %
Hin und wieder!
16.8 %
Nie!
9.3 %
Eher selten!
6.8 %
Stimmen: 279 | Diskussion
Anzeige: Roland Aircraft
Statistik Alle Mitglieder

Aktuell sind 9 Besucher online.

Anzeige: EasyVFR